Time;durP1;ratioP1;P1;durP2;ratioP2;P2;SDS_P1;SDS_P2;PMS_P1;PMS_P2;Temp;Humidity;BMP_temperature;BMP_pressure;BME280_temperature;BME280_humidity;BME280_pressure;Samples;Min_cycle;Max_cycle;Signal;HPM_P1;HPM_P2
2022/09/07 00:01:19;;;;;;;3.40;2.70;;;;;;;17.57;84.20;101255.06;5056997;28;20369;-95
2022/09/07 00:03:44;;;;;;;3.73;2.70;;;;;;;17.51;86.02;101255.28;5057120;28;20017;-94
2022/09/07 00:06:11;;;;;;;6.50;4.17;;;;;;;17.36;87.65;101242.78;5057015;28;20029;-94
2022/09/07 00:08:37;;;;;;;7.75;4.28;;;;;;;17.18;88.13;101237.28;5056836;28;20024;-94
2022/09/07 00:11:06;;;;;;;7.05;4.47;;;;;;;16.97;89.00;101228.44;5056356;28;20090;-92
2022/09/07 00:13:34;;;;;;;8.32;4.03;;;;;;;16.80;89.29;101208.03;5056805;28;20029;-94
2022/09/07 00:16:29;;;;;;;5.47;3.22;;;;;;;16.79;88.71;101196.69;5056493;28;20024;-93
2022/09/07 00:19:00;;;;;;;5.03;3.40;;;;;;;16.70;90.18;101198.78;5039442;28;20053;-93
2022/09/07 00:21:26;;;;;;;7.32;3.45;;;;;;;16.59;90.12;101193.91;5056709;28;20151;-93
2022/09/07 00:23:51;;;;;;;4.73;3.00;;;;;;;16.55;88.17;101187.09;5056324;28;20465;-95
2022/09/07 00:26:20;;;;;;;4.50;2.73;;;;;;;16.53;89.36;101189.75;5056611;28;20025;-94
2022/09/07 00:28:45;;;;;;;4.78;2.70;;;;;;;16.52;89.78;101196.75;5056216;28;20044;-92
2022/09/07 00:31:15;;;;;;;3.80;2.80;;;;;;;16.50;89.97;101188.09;5055979;28;20017;-93
2022/09/07 00:33:42;;;;;;;4.78;2.90;;;;;;;16.45;90.29;101195.25;5056093;28;20021;-93
2022/09/07 00:36:07;;;;;;;4.82;2.90;;;;;;;16.44;89.22;101192.69;5056209;28;20044;-94
2022/09/07 00:38:33;;;;;;;5.63;2.90;;;;;;;16.43;89.90;101189.22;5056383;28;20461;-93
2022/09/07 00:40:58;;;;;;;5.87;2.90;;;;;;;16.41;90.80;101190.16;5055847;28;20047;-94
2022/09/07 00:43:36;;;;;;;4.40;2.67;;;;;;;16.40;89.42;101191.94;5056298;28;20021;-93
2022/09/07 00:46:03;;;;;;;6.03;3.00;;;;;;;16.36;90.89;101190.31;5055634;28;20021;-94
2022/09/07 00:48:53;;;;;;;5.68;2.80;;;;;;;16.34;90.21;101192.13;5055681;28;20068;-95
2022/09/07 00:51:39;;;;;;;3.70;2.70;;;;;;;16.31;91.07;101187.03;5055135;28;20024;-94
2022/09/07 00:54:08;;;;;;;5.43;2.92;;;;;;;16.27;89.31;101170.53;5054985;28;20053;-93
2022/09/07 00:56:38;;;;;;;3.25;2.42;;;;;;;16.31;89.95;101164.28;5055696;28;20499;-94
2022/09/07 00:59:03;;;;;;;4.13;2.50;;;;;;;16.32;89.89;101154.69;5055226;28;20029;-93
2022/09/07 01:01:30;;;;;;;4.38;2.63;;;;;;;16.33;89.07;101149.38;5055510;28;20029;-92
2022/09/07 01:03:57;;;;;;;2.22;2.10;;;;;;;16.35;88.59;101149.31;5055677;28;20373;-93
2022/09/07 01:06:27;;;;;;;3.10;2.20;;;;;;;16.38;87.43;101151.84;5055932;28;20057;-93
2022/09/07 01:08:55;;;;;;;2.65;2.42;;;;;;;16.37;88.13;101152.75;5055786;28;20021;-93
2022/09/07 01:11:21;;;;;;;2.42;2.10;;;;;;;16.36;86.58;101162.38;5055218;28;20533;-94
2022/09/07 01:13:48;;;;;;;2.38;1.80;;;;;;;16.39;86.78;101158.78;5055557;28;20055;-93
2022/09/07 01:16:38;;;;;;;1.80;1.70;;;;;;;16.40;86.37;101150.03;5055509;28;20029;-94
2022/09/07 01:19:18;;;;;;;1.70;1.60;;;;;;;16.43;85.62;101155.19;5055288;28;20040;-93
2022/09/07 01:22:01;;;;;;;1.85;1.75;;;;;;;16.44;86.67;101142.91;5055707;28;20029;-92
2022/09/07 01:24:48;;;;;;;1.70;1.60;;;;;;;16.43;85.81;101143.81;5055679;28;20039;-93
2022/09/07 01:27:46;;;;;;;1.40;1.30;;;;;;;16.45;86.87;101152.50;5035534;28;20040;-94
2022/09/07 01:30:15;;;;;;;1.50;1.40;;;;;;;16.43;84.95;101163.03;5035239;28;20025;-94
2022/09/07 01:33:12;;;;;;;1.60;1.50;;;;;;;16.43;85.66;101176.13;5035711;28;20029;-92
2022/09/07 01:35:57;;;;;;;1.60;1.50;;;;;;;16.45;87.08;101176.06;5035449;28;20033;-93
2022/09/07 01:38:37;;;;;;;1.10;1.10;;;;;;;16.45;85.71;101171.66;5035735;28;20099;-94
2022/09/07 01:41:13;;;;;;;1.48;1.38;;;;;;;16.43;85.85;101165.66;5034842;28;20021;-93
2022/09/07 01:43:56;;;;;;;1.20;1.20;;;;;;;16.44;84.87;101149.00;5035434;28;20079;-93
2022/09/07 01:46:33;;;;;;;1.08;1.08;;;;;;;16.46;85.24;101154.19;5034958;28;20029;-93
2022/09/07 01:49:07;;;;;;;;;;;;;;;16.46;85.56;101155.03;5034989;28;20033;-94
2022/09/07 01:51:36;;;;;;;1.20;1.10;;;;;;;16.48;84.53;101152.38;5035034;28;19940;-94
2022/09/07 01:54:32;;;;;;;0.85;0.85;;;;;;;16.49;84.91;101160.19;5034659;28;20037;-93
2022/09/07 01:57:05;;;;;;;1.20;1.10;;;;;;;16.48;85.10;101157.63;5026056;28;20033;-94
2022/09/07 01:59:52;;;;;;;2.15;1.50;;;;;;;16.47;84.48;101159.38;5034817;28;20031;-94
2022/09/07 02:02:23;;;;;;;1.50;1.40;;;;;;;16.48;83.90;101162.88;5034894;28;20466;-94
2022/09/07 02:04:58;;;;;;;1.30;1.20;;;;;;;16.49;85.34;101157.56;5034828;28;20021;-92
2022/09/07 02:07:47;;;;;;;1.42;1.25;;;;;;;16.47;84.92;101161.16;5034645;28;20104;-94
2022/09/07 02:10:20;;;;;;;1.50;1.40;;;;;;;16.49;84.13;101165.41;5033807;28;20038;-94
2022/09/07 02:12:54;;;;;;;1.27;1.17;;;;;;;16.52;84.00;101161.84;5034904;28;20032;-94
2022/09/07 02:15:29;;;;;;;0.90;0.90;;;;;;;16.53;84.97;101174.03;5034401;28;20029;-94
2022/09/07 02:18:03;;;;;;;1.30;1.30;;;;;;;16.49;84.79;101159.34;5034029;28;20099;-94
2022/09/07 02:20:32;;;;;;;1.10;1.00;;;;;;;16.46;84.06;101156.81;5034385;28;20025;-95
2022/09/07 02:23:03;;;;;;;1.30;1.20;;;;;;;16.46;83.63;101148.97;5034357;28;20466;-94
2022/09/07 02:25:39;;;;;;;1.08;1.08;;;;;;;16.47;83.41;101151.53;5034232;28;20045;-94
2022/09/07 02:28:11;;;;;;;0.93;0.93;;;;;;;16.49;83.48;101146.25;5034429;28;20095;-94
2022/09/07 02:30:36;;;;;;;0.95;0.95;;;;;;;16.47;83.45;101143.66;5034400;28;20025;-94
2022/09/07 02:33:02;;;;;;;0.93;0.80;;;;;;;16.48;83.28;101147.16;5034376;28;20071;-94
2022/09/07 02:35:27;;;;;;;0.70;0.70;;;;;;;16.48;83.19;101160.25;5033898;28;20053;-95
2022/09/07 02:37:53;;;;;;;0.70;0.70;;;;;;;16.47;83.29;101153.28;5033843;28;20025;-95
2022/09/07 02:40:19;;;;;;;1.08;0.98;;;;;;;16.44;82.95;101159.47;5034221;28;20021;-94
2022/09/07 02:42:46;;;;;;;1.20;1.10;;;;;;;16.42;82.76;101156.09;5034154;28;20056;-94
2022/09/07 02:45:14;;;;;;;1.10;1.10;;;;;;;16.41;82.44;101156.97;5034092;28;20026;-94
2022/09/07 02:48:01;;;;;;;1.35;1.25;;;;;;;16.40;82.69;101160.50;5034348;28;20148;-93
2022/09/07 02:51:08;;;;;;;1.02;1.02;;;;;;;16.38;82.30;101154.47;5034276;28;20044;-95
2022/09/07 02:53:52;;;;;;;1.27;1.17;;;;;;;16.36;82.36;101153.66;5028183;28;20041;-95
2022/09/07 02:56:32;;;;;;;1.02;1.02;;;;;;;16.34;82.36;101158.97;5033548;28;20045;-94
2022/09/07 02:59:12;;;;;;;0.98;0.98;;;;;;;16.29;83.26;101157.41;5033504;28;20489;-95
2022/09/07 03:02:01;;;;;;;1.05;1.00;;;;;;;16.23;82.46;101154.97;5033973;28;20039;-94
2022/09/07 03:04:38;;;;;;;1.40;1.30;;;;;;;16.18;82.24;101156.00;5033977;28;20067;-95
2022/09/07 03:07:11;;;;;;;1.50;1.40;;;;;;;16.17;82.59;101167.38;5033771;28;20021;-93
2022/09/07 03:09:42;;;;;;;1.30;1.10;;;;;;;16.12;82.34;101158.81;5034310;28;20021;-95
2022/09/07 03:12:09;;;;;;;1.13;1.10;;;;;;;16.12;82.35;101164.06;5037952;28;20082;-94
2022/09/07 03:14:40;;;;;;;1.00;1.00;;;;;;;16.14;82.63;101156.16;5038034;28;20112;-95
2022/09/07 03:17:06;;;;;;;1.05;1.05;;;;;;;16.16;82.17;101162.19;5037275;28;20041;-95
2022/09/07 03:19:31;;;;;;;1.35;1.30;;;;;;;16.19;82.58;101154.22;5037705;28;20032;-95
2022/09/07 03:21:56;;;;;;;1.00;1.00;;;;;;;16.19;82.28;101147.25;5037792;28;20022;-94
2022/09/07 03:24:22;;;;;;;1.10;1.10;;;;;;;16.23;82.58;101152.34;5037739;28;20117;-95
2022/09/07 03:26:47;;;;;;;1.33;1.23;;;;;;;16.26;82.35;101144.41;5037757;28;20022;-95
2022/09/07 03:29:13;;;;;;;1.40;1.30;;;;;;;16.27;82.54;101146.13;5037693;28;20030;-95
2022/09/07 03:31:39;;;;;;;0.95;0.95;;;;;;;16.29;82.42;101149.56;5037639;28;20030;-94
2022/09/07 03:34:04;;;;;;;1.00;1.00;;;;;;;16.31;82.53;101155.59;5037115;28;20529;-94
2022/09/07 03:36:31;;;;;;;1.40;1.30;;;;;;;16.30;82.60;101146.88;5037244;28;20067;-95
2022/09/07 03:38:58;;;;;;;0.90;0.90;;;;;;;16.31;82.36;101148.56;5036972;28;20473;-94
2022/09/07 03:41:24;;;;;;;1.38;1.27;;;;;;;16.32;82.46;101146.84;5054637;28;20075;-96
2022/09/07 03:43:49;;;;;;;1.15;1.15;;;;;;;16.34;82.23;101142.38;5057644;28;20033;-95
2022/09/07 03:46:18;;;;;;;1.27;1.27;;;;;;;16.33;82.47;101140.66;5057061;28;20477;-95
2022/09/07 03:48:44;;;;;;;1.10;1.10;;;;;;;16.33;82.39;101148.50;5057364;28;20123;-94
2022/09/07 03:51:11;;;;;;;1.30;1.20;;;;;;;16.34;82.40;101156.34;5057004;28;20028;-94
2022/09/07 03:53:39;;;;;;;1.00;1.00;;;;;;;16.35;82.24;101163.28;5057293;28;20469;-94
2022/09/07 03:56:11;;;;;;;1.00;1.00;;;;;;;16.36;82.57;101151.91;5057301;28;20029;-95
2022/09/07 03:58:36;;;;;;;1.08;1.05;;;;;;;16.36;82.46;101149.28;5057145;28;20526;-94
2022/09/07 04:01:17;;;;;;;1.33;1.20;;;;;;;16.38;82.63;101145.75;5056938;28;20025;-95
2022/09/07 04:03:43;;;;;;;1.10;1.00;;;;;;;16.35;82.68;101129.25;5057284;28;20017;-95
2022/09/07 04:06:09;;;;;;;;;;;;;;;16.34;82.52;101124.91;5057310;28;20020;-95
2022/09/07 04:08:36;;;;;;;1.30;1.20;;;;;;;16.34;82.58;101129.28;5056420;28;19921;-95
2022/09/07 04:11:04;;;;;;;1.00;1.00;;;;;;;16.32;82.48;101121.47;5056689;28;20768;-95
2022/09/07 04:13:30;;;;;;;0.80;0.80;;;;;;;16.30;82.53;101115.44;5056500;28;20052;-95
2022/09/07 04:15:56;;;;;;;1.02;0.95;;;;;;;16.28;82.36;101117.25;5056553;28;20025;-95
2022/09/07 04:18:22;;;;;;;1.10;1.10;;;;;;;16.28;82.37;101113.78;5056372;28;20045;-95
2022/09/07 04:20:49;;;;;;;1.48;1.38;;;;;;;16.27;82.57;101105.06;5056108;28;20047;-94
2022/09/07 04:23:27;;;;;;;1.23;1.23;;;;;;;16.26;82.54;101102.50;5055727;28;20086;-95
2022/09/07 04:25:52;;;;;;;1.10;1.10;;;;;;;16.27;82.53;101110.31;5055825;28;20456;-95
2022/09/07 04:28:19;;;;;;;1.00;1.00;;;;;;;16.27;82.63;101096.38;5055866;28;20036;-94
2022/09/07 04:31:06;;;;;;;1.38;1.27;;;;;;;16.28;82.32;101105.94;5056637;28;20036;-95
2022/09/07 04:33:31;;;;;;;1.50;1.40;;;;;;;16.28;82.44;101121.66;5015001;28;20516;-94
2022/09/07 04:36:03;;;;;;;1.40;1.30;;;;;;;16.28;82.54;101119.88;5055603;28;20025;-94
2022/09/07 04:38:29;;;;;;;1.35;1.27;;;;;;;16.25;82.41;101125.25;5055870;28;20061;-94
2022/09/07 04:41:17;;;;;;;1.73;1.40;;;;;;;16.25;82.79;101130.47;5055546;28;20052;-95
2022/09/07 04:43:44;;;;;;;1.48;1.38;;;;;;;16.23;82.26;101128.78;5055737;28;20114;-95
2022/09/07 04:46:21;;;;;;;1.95;1.20;;;;;;;16.20;82.48;101116.66;5056292;28;20029;-95
2022/09/07 04:48:52;;;;;;;1.40;1.30;;;;;;;16.14;82.56;101127.38;5055514;28;20028;-94
2022/09/07 04:51:19;;;;;;;1.58;1.48;;;;;;;16.13;82.43;101128.28;5056142;28;20025;-95
2022/09/07 04:53:47;;;;;;;1.50;1.40;;;;;;;16.09;82.40;101124.91;5056082;28;20033;-94
2022/09/07 04:56:12;;;;;;;1.27;1.25;;;;;;;16.04;82.88;101122.41;5055126;28;20541;-94
2022/09/07 04:58:38;;;;;;;1.10;1.10;;;;;;;16.02;82.94;101115.53;5056006;28;20119;-95
2022/09/07 05:01:04;;;;;;;0.70;0.70;;;;;;;15.96;82.88;101111.34;5038575;28;20029;-95
2022/09/07 05:03:31;;;;;;;1.20;1.10;;;;;;;15.92;82.60;101117.63;5034691;28;20040;-95
2022/09/07 05:05:59;;;;;;;;;;;;;;;15.92;83.02;101119.38;5035725;28;20057;-95
2022/09/07 05:08:24;;;;;;;1.40;1.30;;;;;;;15.90;82.83;101115.03;5035921;28;19921;-95
2022/09/07 05:10:54;;;;;;;1.23;1.20;;;;;;;15.92;82.90;101111.50;5034625;28;20021;-95
2022/09/07 05:13:30;;;;;;;1.63;1.52;;;;;;;15.94;83.08;101113.16;5035815;28;20454;-95
2022/09/07 05:15:59;;;;;;;1.85;1.50;;;;;;;15.96;83.21;101106.13;5035527;28;20369;-94
2022/09/07 05:18:25;;;;;;;1.10;1.10;;;;;;;15.99;83.67;101097.31;5018935;28;20054;-94
2022/09/07 05:20:50;;;;;;;1.20;1.20;;;;;;;16.01;83.72;101106.84;5015472;28;20022;-95
2022/09/07 05:23:15;;;;;;;1.50;1.40;;;;;;;16.01;83.26;101106.84;5015374;28;20034;-94
2022/09/07 05:25:43;;;;;;;1.30;1.30;;;;;;;16.03;83.04;101120.72;5015097;28;20084;-95
2022/09/07 05:28:08;;;;;;;1.40;1.30;;;;;;;16.08;83.23;101122.31;5014843;28;20030;-95
2022/09/07 05:30:46;;;;;;;1.50;1.40;;;;;;;16.09;82.85;101124.91;5015332;28;20034;-94
2022/09/07 05:33:12;;;;;;;1.48;1.38;;;;;;;16.12;82.90;101131.78;5015182;28;20070;-94
2022/09/07 05:35:37;;;;;;;1.40;1.30;;;;;;;16.13;83.09;101123.88;5015609;28;20049;-95
2022/09/07 05:38:02;;;;;;;2.00;1.60;;;;;;;16.15;83.06;101121.22;5014729;28;20040;-95
2022/09/07 05:40:31;;;;;;;1.63;1.53;;;;;;;16.15;83.20;101122.06;5015454;28;20102;-94
2022/09/07 05:42:57;;;;;;;1.60;1.50;;;;;;;16.18;83.09;101118.47;5055216;23;20052;-94
2022/09/07 05:45:22;;;;;;;1.50;1.40;;;;;;;16.19;83.16;101128.91;5055287;28;20104;-93
2022/09/07 05:47:49;;;;;;;1.77;1.67;;;;;;;16.21;83.21;101131.47;5055201;28;20422;-95
2022/09/07 05:50:14;;;;;;;;;;;;;;;16.23;83.03;101129.66;5055036;28;20052;-95
2022/09/07 05:52:40;;;;;;;1.67;1.57;;;;;;;16.25;83.12;101133.09;5053872;28;19917;-87
2022/09/07 05:55:05;;;;;;;1.20;1.20;;;;;;;16.27;82.96;101136.50;5053486;28;20469;-87
2022/09/07 05:57:31;;;;;;;1.60;1.50;;;;;;;16.28;82.65;101137.34;5053685;28;20021;-88
2022/09/07 05:59:56;;;;;;;1.67;1.57;;;;;;;16.30;82.47;101138.16;5054251;28;20033;-86
2022/09/07 06:02:21;;;;;;;1.90;1.80;;;;;;;16.30;82.58;101139.00;5053535;28;20516;-85
2022/09/07 06:04:46;;;;;;;1.63;1.47;;;;;;;16.33;82.79;101143.28;5053408;28;20032;-85
2022/09/07 06:07:12;;;;;;;1.20;1.20;;;;;;;16.38;82.95;101145.75;5052392;28;20017;-85
2022/09/07 06:09:39;;;;;;;1.70;1.60;;;;;;;16.40;82.90;101144.78;5053557;28;20112;-85
2022/09/07 06:12:04;;;;;;;;;;;;;;;16.43;83.13;101156.91;5053532;28;20495;-85
2022/09/07 06:14:30;;;;;;;2.33;1.70;;;;;;;16.44;82.88;101146.38;5052505;28;19909;-85
2022/09/07 06:16:56;;;;;;;1.52;1.42;;;;;;;16.45;82.73;101158.56;5053017;28;20021;-85
2022/09/07 06:19:21;;;;;;;1.40;1.30;;;;;;;16.49;83.11;101151.50;5052803;28;20059;-85
2022/09/07 06:21:47;;;;;;;1.53;1.43;;;;;;;16.49;83.02;101151.50;5052512;28;20017;-85
2022/09/07 06:24:12;;;;;;;1.50;1.40;;;;;;;16.50;82.85;101150.53;5052691;28;20048;-85
2022/09/07 06:26:37;;;;;;;1.80;1.70;;;;;;;16.51;82.79;101153.13;5053200;28;20414;-85
2022/09/07 06:29:03;;;;;;;1.80;1.70;;;;;;;16.55;83.06;101164.34;5052354;28;20146;-85
2022/09/07 06:31:28;;;;;;;1.63;1.43;;;;;;;16.61;83.17;101165.91;5053187;28;20083;-85
2022/09/07 06:33:54;;;;;;;1.67;1.57;;;;;;;16.65;82.98;101165.72;5052665;28;20102;-85
2022/09/07 06:36:21;;;;;;;3.33;1.70;;;;;;;16.71;82.71;101169.06;5052420;28;20025;-85
2022/09/07 06:38:48;;;;;;;2.00;1.80;;;;;;;16.80;82.87;101166.94;5052946;28;20107;-85
2022/09/07 06:41:19;;;;;;;2.03;1.85;;;;;;;16.91;82.70;101163.06;5051643;28;20476;-85
2022/09/07 06:43:44;;;;;;;2.05;1.85;;;;;;;16.96;82.62;101163.81;5053047;28;20119;-85
2022/09/07 06:46:10;;;;;;;1.80;1.70;;;;;;;17.02;82.63;101165.34;5051624;28;20143;-86
2022/09/07 06:48:36;;;;;;;1.90;1.80;;;;;;;17.04;82.77;101180.09;5052197;28;20021;-85
2022/09/07 06:51:04;;;;;;;2.07;1.90;;;;;;;17.03;83.26;101170.53;5052729;28;20021;-86
2022/09/07 06:53:31;;;;;;;2.78;2.10;;;;;;;17.00;82.86;101173.25;5052973;28;20021;-88
2022/09/07 06:55:57;;;;;;;2.85;2.10;;;;;;;16.99;83.18;101176.81;5052302;28;20048;-87
2022/09/07 06:58:25;;;;;;;5.33;3.60;;;;;;;16.96;86.72;101172.50;5052396;28;20155;-87
2022/09/07 07:00:51;;;;;;;6.50;4.00;;;;;;;16.95;86.26;101168.19;5052721;28;20436;-88
2022/09/07 07:03:17;;;;;;;12.95;6.40;;;;;;;16.96;85.65;101183.00;5068403;22;20095;-91
2022/09/07 07:05:50;;;;;;;8.53;4.97;;;;;;;16.93;85.20;101179.59;5053904;28;20025;-90
2022/09/07 07:08:16;;;;;;;7.80;4.43;;;;;;;16.92;85.52;101170.91;5053810;28;20021;-89
2022/09/07 07:10:41;;;;;;;9.43;4.83;;;;;;;17.03;87.31;101170.53;5053524;28;20099;-92
2022/09/07 07:13:06;;;;;;;8.13;4.83;;;;;;;17.37;87.29;101177.09;5053433;28;20100;-89
2022/09/07 07:15:32;;;;;;;8.73;5.17;;;;;;;17.42;85.46;101180.44;5053452;28;20432;-93
2022/09/07 07:17:57;;;;;;;12.13;6.47;;;;;;;17.52;88.40;101180.06;5052737;28;20090;-85
2022/09/07 07:20:22;;;;;;;12.50;6.77;;;;;;;17.65;85.48;101178.66;5052647;28;20032;-83
2022/09/07 07:22:51;;;;;;;12.47;6.97;;;;;;;17.75;86.09;101173.88;5052219;28;20529;-83
2022/09/07 07:25:17;;;;;;;9.70;5.65;;;;;;;17.85;86.93;101171.75;5048386;28;20036;-84
2022/09/07 07:27:44;;;;;;;12.13;6.53;;;;;;;17.97;86.99;101171.28;5048628;28;20163;-85
2022/09/07 07:30:14;;;;;;;12.48;6.45;;;;;;;18.10;87.41;101176.03;5039951;28;20053;-84
2022/09/07 07:32:39;;;;;;;12.73;6.63;;;;;;;18.21;86.88;101177.28;5041503;28;20029;-84
2022/09/07 07:35:06;;;;;;;11.27;6.20;;;;;;;18.34;85.67;101176.75;5032063;28;20021;-84
2022/09/07 07:37:32;;;;;;;12.00;6.65;;;;;;;18.41;85.93;101191.34;5036082;28;20037;-85
2022/09/07 07:39:57;;;;;;;12.47;6.87;;;;;;;18.44;84.70;101188.59;5051306;28;20025;-84
2022/09/07 07:42:22;;;;;;;10.27;6.10;;;;;;;18.51;85.83;101187.41;5041240;28;20018;-85
2022/09/07 07:44:48;;;;;;;14.13;7.97;;;;;;;18.64;86.41;101197.38;5042922;28;20100;-84
2022/09/07 07:47:13;;;;;;;11.80;6.70;;;;;;;18.67;86.13;101194.63;5051586;28;20032;-85
2022/09/07 07:49:38;;;;;;;17.40;9.67;;;;;;;18.65;86.11;101197.31;5052303;28;20021;-89
2022/09/07 07:52:05;;;;;;;18.23;10.13;;;;;;;18.65;85.87;101197.31;5034826;28;20367;-87
2022/09/07 07:54:32;;;;;;;16.73;9.40;;;;;;;18.72;85.95;101202.31;5038738;28;20484;-87
2022/09/07 07:56:58;;;;;;;14.00;7.88;;;;;;;18.84;86.08;101199.13;5055102;28;20028;-88
2022/09/07 07:59:23;;;;;;;10.93;6.30;;;;;;;19.00;85.56;101198.50;5056032;28;20025;-88
2022/09/07 08:01:49;;;;;;;10.63;6.23;;;;;;;19.12;85.58;101195.31;5056574;28;20043;-88
2022/09/07 08:04:14;;;;;;;11.67;7.00;;;;;;;19.14;83.85;101203.97;5075574;28;20282;-88
2022/09/07 08:06:42;;;;;;;15.27;7.53;;;;;;;19.19;84.77;101212.50;5044766;28;20392;-89
2022/09/07 08:09:08;;;;;;;10.23;6.00;;;;;;;19.23;84.33;101214.09;5035232;28;20037;-88
2022/09/07 08:11:34;;;;;;;8.67;5.50;;;;;;;19.19;83.14;101215.13;5035210;28;20021;-87
2022/09/07 08:14:01;;;;;;;10.00;5.90;;;;;;;19.21;83.38;101210.66;5034337;28;20075;-89
2022/09/07 08:16:26;;;;;;;9.00;5.07;;;;;;;19.27;84.33;101209.53;5035771;28;20057;-88
2022/09/07 08:18:52;;;;;;;12.43;6.80;;;;;;;19.31;83.97;101218.13;5035967;28;20068;-87
2022/09/07 08:21:17;;;;;;;9.07;5.50;;;;;;;19.36;83.24;101214.38;5034963;28;20021;-92
2022/09/07 08:23:43;;;;;;;8.17;5.10;;;;;;;19.45;83.31;101221.81;5035472;28;20083;-84
2022/09/07 08:26:09;;;;;;;11.03;6.07;;;;;;;19.51;82.50;101223.31;5034935;28;20013;-88
2022/09/07 08:28:36;;;;;;;12.43;6.80;;;;;;;19.58;82.65;101218.63;5035124;28;20030;-88
2022/09/07 08:31:07;;;;;;;10.63;5.72;;;;;;;19.64;82.68;101223.63;5041177;28;20367;-85
2022/09/07 08:33:36;;;;;;;9.15;5.38;;;;;;;19.70;82.42;101227.72;5055197;28;20029;-89
2022/09/07 08:36:11;;;;;;;10.45;6.18;;;;;;;19.80;81.53;101226.38;5054540;28;20028;-91
2022/09/07 08:38:37;;;;;;;6.13;4.28;;;;;;;19.90;81.47;101226.78;5055997;28;20048;-87
2022/09/07 08:41:27;;;;;;;4.67;3.50;;;;;;;20.03;81.71;101227.91;5054159;28;20408;-85
2022/09/07 08:44:05;;;;;;;8.13;5.32;;;;;;;20.14;81.38;101232.66;5052564;28;20034;-85
2022/09/07 08:46:39;;;;;;;9.98;6.05;;;;;;;20.20;79.95;101232.34;5035081;28;20052;-84
2022/09/07 08:49:12;;;;;;;12.93;7.32;;;;;;;20.21;80.21;101239.31;5034202;28;20025;-93
2022/09/07 08:51:47;;;;;;;10.68;6.50;;;;;;;20.29;79.79;101235.44;5035592;28;20025;-89
2022/09/07 08:54:15;;;;;;;6.67;4.50;;;;;;;20.38;80.28;101232.31;5034499;28;20079;-85
2022/09/07 08:56:47;;;;;;;5.22;3.75;;;;;;;20.54;79.63;101235.06;5034194;28;20272;-87
2022/09/07 08:59:20;;;;;;;9.80;5.80;;;;;;;20.65;78.87;101234.50;5034404;28;20120;-87
2022/09/07 09:01:45;;;;;;;7.07;4.50;;;;;;;20.72;79.16;101233.22;5034003;28;20032;-87
2022/09/07 09:04:29;;;;;;;11.90;6.67;;;;;;;20.77;77.52;101235.69;5034618;28;20108;-88
2022/09/07 09:07:16;;;;;;;6.60;4.53;;;;;;;20.89;78.14;101232.38;5041005;28;20029;-86
2022/09/07 09:10:09;;;;;;;6.68;4.32;;;;;;;21.03;78.04;101236.94;5050598;28;20116;-88
2022/09/07 09:12:54;;;;;;;6.35;3.85;;;;;;;21.17;76.47;101238.00;5054907;28;20036;-89
2022/09/07 09:15:29;;;;;;;9.40;5.40;;;;;;;21.24;76.48;101236.72;5054610;28;20021;-88
2022/09/07 09:18:32;;;;;;;7.00;4.30;;;;;;;21.30;76.05;101241.66;5054065;28;20548;-89
2022/09/07 09:20:59;;;;;;;6.82;4.55;;;;;;;21.41;76.09;101234.00;5034809;28;20530;-90
2022/09/07 09:23:27;;;;;;;8.15;4.30;;;;;;;21.52;75.54;101230.78;5034824;28;20478;-91
2022/09/07 09:25:59;;;;;;;6.93;4.10;;;;;;;21.67;74.93;101230.91;5035007;28;20440;-90
2022/09/07 09:28:25;;;;;;;3.55;3.08;;;;;;;21.84;75.75;101229.97;5035374;28;20017;-90
2022/09/07 09:30:50;;;;;;;6.07;4.00;;;;;;;22.04;73.33;101234.09;5033920;28;20029;-84
2022/09/07 09:33:27;;;;;;;4.00;3.00;;;;;;;22.24;74.96;101227.66;5034695;28;20029;-88
2022/09/07 09:35:56;;;;;;;7.07;4.40;;;;;;;22.40;71.10;101229.41;5034337;28;20030;-88
2022/09/07 09:38:39;;;;;;;6.78;4.22;;;;;;;22.48;72.76;101235.94;5033938;28;20547;-88
2022/09/07 09:41:10;;;;;;;7.05;4.03;;;;;;;22.63;70.57;101238.63;5034204;28;20041;-82
2022/09/07 09:43:38;;;;;;;6.75;4.10;;;;;;;22.74;70.12;101238.00;5034119;28;20025;-81
2022/09/07 09:46:17;;;;;;;6.43;4.22;;;;;;;22.82;69.76;101233.06;5032909;28;20022;-81
2022/09/07 09:48:42;;;;;;;4.47;3.20;;;;;;;22.91;71.10;101229.84;5033781;28;20072;-81
2022/09/07 09:51:10;;;;;;;3.63;3.00;;;;;;;23.04;67.33;101231.75;5033045;28;20528;-81
2022/09/07 09:53:42;;;;;;;2.83;2.47;;;;;;;23.18;70.24;101228.25;5033784;28;20018;-82
2022/09/07 09:56:08;;;;;;;4.88;3.20;;;;;;;23.34;69.40;101230.78;5033643;28;20018;-82
2022/09/07 09:58:39;;;;;;;5.50;3.10;;;;;;;23.48;67.33;101228.13;5032804;28;20036;-82
2022/09/07 10:01:21;;;;;;;4.95;3.08;;;;;;;23.59;67.88;101228.28;5033269;28;20026;-81
2022/09/07 10:03:46;;;;;;;2.75;2.30;;;;;;;23.71;67.60;101226.63;5048246;28;20048;-82
2022/09/07 10:06:14;;;;;;;;;;;;;;;23.80;66.56;101230.50;5052917;28;20044;-81
2022/09/07 10:08:56;;;;;;;4.43;2.95;;;;;;;23.93;65.90;101232.34;5052390;28;19920;-81
2022/09/07 10:11:43;;;;;;;4.30;3.10;;;;;;;24.05;62.85;101229.75;5033584;28;20026;-85
2022/09/07 10:14:25;;;;;;;6.97;3.20;;;;;;;24.06;62.79;101227.97;5032449;28;20033;-83
2022/09/07 10:16:51;;;;;;;4.25;2.88;;;;;;;24.10;60.33;101223.31;5032953;28;20029;-82
2022/09/07 10:19:33;;;;;;;5.07;3.10;;;;;;;24.05;64.56;101220.97;5031540;28;20037;-83
2022/09/07 10:22:01;;;;;;;3.45;2.55;;;;;;;24.04;64.62;101213.97;5033144;28;20033;-81
2022/09/07 10:24:32;;;;;;;2.42;2.00;;;;;;;24.08;65.11;101209.28;5032967;28;20483;-80
2022/09/07 10:26:57;;;;;;;3.45;2.22;;;;;;;24.16;63.77;101212.28;5032175;28;20025;-81
2022/09/07 10:29:35;;;;;;;2.03;1.90;;;;;;;24.22;64.04;101222.50;5034177;28;20075;-81
2022/09/07 10:32:18;;;;;;;2.30;2.10;;;;;;;24.23;61.03;101221.53;5032848;28;20112;-84
2022/09/07 10:35:05;;;;;;;2.05;1.80;;;;;;;24.22;62.25;101222.50;5032096;28;20481;-85
2022/09/07 10:37:42;;;;;;;4.85;2.22;;;;;;;24.26;59.62;101213.38;5032791;28;20033;-84
2022/09/07 10:40:27;;;;;;;4.80;2.05;;;;;;;24.25;56.55;101214.34;5032750;28;20400;-85
2022/09/07 10:43:09;;;;;;;4.72;1.90;;;;;;;24.22;60.40;101209.22;5032508;28;20030;-84
2022/09/07 10:46:16;;;;;;;2.13;1.63;;;;;;;24.36;60.87;101201.19;5033305;28;20029;-83
2022/09/07 10:48:49;;;;;;;2.67;1.75;;;;;;;24.57;59.86;101197.16;5003940;28;20090;-84
2022/09/07 10:51:31;;;;;;;1.88;1.60;;;;;;;24.76;59.57;101200.28;5032814;28;20030;-83
2022/09/07 10:54:11;;;;;;;3.20;1.90;;;;;;;24.87;58.26;101196.00;5032343;28;20017;-80
2022/09/07 10:57:05;;;;;;;3.22;1.92;;;;;;;24.80;55.48;101196.44;5032907;28;20116;-82
2022/09/07 10:59:48;;;;;;;3.85;2.00;;;;;;;24.97;59.01;101195.25;5005367;28;20059;-83
2022/09/07 11:02:54;;;;;;;1.58;1.48;;;;;;;25.27;58.02;101194.03;5031685;28;20054;-81
2022/09/07 11:05:38;;;;;;;1.98;1.50;;;;;;;25.37;57.01;101190.69;5032403;28;20108;-81
2022/09/07 11:08:06;;;;;;;3.28;1.45;;;;;;;25.23;58.29;101196.97;5032140;28;20037;-80
2022/09/07 11:10:51;;;;;;;1.38;1.27;;;;;;;25.10;59.44;101189.91;5045620;28;20469;-79
2022/09/07 11:13:21;;;;;;;2.38;1.30;;;;;;;24.94;54.27;101191.97;5015245;28;20052;-80
2022/09/07 11:16:13;;;;;;;5.82;2.03;;;;;;;24.73;55.58;101194.31;5040832;28;20021;-84
2022/09/07 11:18:45;;;;;;;3.17;1.63;;;;;;;24.56;57.24;101187.50;5051029;28;20033;-83
2022/09/07 11:21:17;;;;;;;1.30;1.20;;;;;;;24.44;58.04;101190.03;5049553;28;20060;-83
2022/09/07 11:23:50;;;;;;;1.63;1.20;;;;;;;24.32;56.51;101182.94;5049164;28;20040;-82
2022/09/07 11:26:22;;;;;;;3.55;1.67;;;;;;;24.40;56.32;101179.75;5032463;28;20040;-80
2022/09/07 11:28:54;;;;;;;3.38;1.60;;;;;;;24.66;55.95;101181.44;5031976;28;20032;-81
2022/09/07 11:31:29;;;;;;;3.25;1.50;;;;;;;24.91;56.32;101177.09;5032863;28;20036;-83
2022/09/07 11:34:14;;;;;;;4.70;1.60;;;;;;;25.04;53.62;101181.53;5048661;28;20457;-83
2022/09/07 11:36:49;;;;;;;2.83;1.60;;;;;;;25.10;55.69;101187.28;5053331;28;20033;-84
2022/09/07 11:39:25;;;;;;;4.32;1.80;;;;;;;25.12;52.19;101184.50;5055498;28;20372;-84
2022/09/07 11:41:59;;;;;;;3.30;1.80;;;;;;;25.13;53.95;101179.06;5055126;28;20087;-83
2022/09/07 11:44:32;;;;;;;3.03;1.80;;;;;;;25.11;53.08;101180.97;5055488;28;20381;-84
2022/09/07 11:47:09;;;;;;;1.50;1.40;;;;;;;24.94;54.46;101181.34;5055525;28;20029;-84